West Port Arthur, Texas
Current Conditions -  °F | °C
As of 3:53 PM on Thursday 27 Nov 2014 (Local Time) from KBPT Reporting Station
Clear Clear  
Wind Chill: 66°   Ceiling: Unl
Heat Index: 66°   Visibility: 10mi
Dew Point: 33°   Wind: 8mph
Humidity: 29%   Direction: 10°N
Pressure: 30.41"   Gusts: NA
Location:  29.7569°N, 94.1898°W
Report Text: KBPT 272153Z 01007KT 10SM CLR 19/01 A3041 RMK AO2 SLP298 T01890006
Loading
Personal Weather Stations






























Interactive Weather Map New forecast layout! Learn more

10-Day Weather Forecast

Advertisements
Track Severe Weather on mobile